createdAt,value
2023-04-10T00:00:13.344Z,68.18
2023-04-10T00:03:17.978Z,64.43
2023-04-10T00:06:22.841Z,67.28
2023-04-10T00:09:26.490Z,64.38
2023-04-10T00:12:30.614Z,62.75
2023-04-10T00:15:33.974Z,61.70
2023-04-10T00:18:37.144Z,65.43
2023-04-10T00:21:41.883Z,67.63
2023-04-10T00:24:45.048Z,64.07
2023-04-10T00:27:48.356Z,62.03
2023-04-10T00:30:51.841Z,57.83
2023-04-10T00:33:55.348Z,60.70
2023-04-10T00:37:00.470Z,60.67
2023-04-10T00:40:04.459Z,57.80
2023-04-10T00:43:07.783Z,63.88
2023-04-10T00:46:11.640Z,61.13
2023-04-10T00:49:15.806Z,57.17
2023-04-10T00:52:21.004Z,55.78
2023-04-10T00:55:25.290Z,56.50
2023-04-10T00:58:28.765Z,58.63
2023-04-10T01:01:32.270Z,53.38
2023-04-10T01:04:36.211Z,59.55
2023-04-10T01:07:55.492Z,58.70
2023-04-10T01:11:04.782Z,53.40
2023-04-10T01:14:17.434Z,54.35
2023-04-10T01:17:27.588Z,49.70
2023-04-10T01:20:33.600Z,54.42
2023-04-10T01:23:54.364Z,50.95
2023-04-10T01:27:11.229Z,53.55
2023-04-10T01:30:21.947Z,53.97
2023-04-10T01:33:30.507Z,46.15
2023-04-10T01:36:37.538Z,56.90
2023-04-10T01:39:44.031Z,48.63
2023-04-10T01:42:53.139Z,60.08
2023-04-10T01:46:00.508Z,55.78
2023-04-10T01:49:04.302Z,59.75
2023-04-10T01:52:08.517Z,64.30
2023-04-10T01:55:12.435Z,62.50
2023-04-10T01:58:21.735Z,57.47
2023-04-10T02:01:30.170Z,61.35
2023-04-10T02:04:34.904Z,63.35
2023-04-10T02:07:45.128Z,63.65
2023-04-10T02:10:53.842Z,60.40
2023-04-10T02:14:02.216Z,71.20
2023-04-10T02:17:09.448Z,59.72
2023-04-10T02:20:13.488Z,72.75
2023-04-10T02:23:19.225Z,67.90
2023-04-10T02:26:22.420Z,64.25
2023-04-10T02:29:25.963Z,65.22
2023-04-10T02:32:31.170Z,61.65
2023-04-10T02:35:35.867Z,67.88
2023-04-10T02:38:39.993Z,65.63
2023-04-10T02:41:43.392Z,75.93
2023-04-10T02:44:49.585Z,67.03
2023-04-10T02:47:54.495Z,65.32
2023-04-10T02:50:59.380Z,60.67
2023-04-10T02:54:04.588Z,62.33
2023-04-10T02:57:09.267Z,57.03
2023-04-10T03:00:14.097Z,63.45
2023-04-10T03:03:40.196Z,61.70
2023-04-10T03:06:43.567Z,57.45
2023-04-10T03:09:46.778Z,58.83
2023-04-10T03:12:50.162Z,54.90
2023-04-10T03:15:53.383Z,59.00
2023-04-10T03:18:58.720Z,56.30
2023-04-10T03:22:02.403Z,58.70
2023-04-10T03:25:06.703Z,56.75
2023-04-10T03:28:09.894Z,58.22
2023-04-10T03:31:13.605Z,57.20
2023-04-10T03:34:21.133Z,56.58
2023-04-10T03:37:24.316Z,55.30
2023-04-10T03:40:27.508Z,55.15
2023-04-10T03:43:31.765Z,60.75
2023-04-10T03:46:36.664Z,64.78
2023-04-10T03:49:41.400Z,60.22
2023-04-10T03:52:44.898Z,57.38
2023-04-10T03:55:52.522Z,57.72
2023-04-10T03:58:57.645Z,58.45
2023-04-10T04:02:01.108Z,55.70
2023-04-10T04:05:07.056Z,52.15
2023-04-10T04:08:22.085Z,49.60
2023-04-10T04:15:04.896Z,49.08
2023-04-10T04:18:26.469Z,47.38
2023-04-10T04:21:47.554Z,51.30
2023-04-10T04:25:10.890Z,54.03
2023-04-10T04:28:32.832Z,48.17
2023-04-10T04:31:54.244Z,45.55
2023-04-10T04:35:12.524Z,44.80
2023-04-10T04:38:29.483Z,45.00
2023-04-10T04:41:45.559Z,46.15
2023-04-10T04:44:59.289Z,44.92
2023-04-10T04:48:28.445Z,43.10
2023-04-10T04:51:48.136Z,44.87
2023-04-10T04:55:15.441Z,48.33
2023-04-10T04:58:30.908Z,46.65
2023-04-10T05:01:47.920Z,44.70
2023-04-10T05:05:00.581Z,48.13
2023-04-10T05:08:24.144Z,51.83
2023-04-10T05:11:47.330Z,49.53
2023-04-10T05:15:09.849Z,57.50
2023-04-10T05:18:33.454Z,50.20
2023-04-10T05:21:54.907Z,51.20
2023-04-10T05:25:12.275Z,49.70
2023-04-10T05:28:35.675Z,49.70
2023-04-10T05:32:05.317Z,54.65
2023-04-10T05:35:34.858Z,54.25
2023-04-10T05:38:58.494Z,48.50
2023-04-10T05:42:13.427Z,53.28
2023-04-10T05:45:31.474Z,46.45
2023-04-10T05:48:34.788Z,48.35
2023-04-10T05:51:53.472Z,48.38
2023-04-10T05:55:15.934Z,71.78
2023-04-10T05:58:44.116Z,105.30
2023-04-10T06:01:59.905Z,67.10
2023-04-10T06:05:03.789Z,37.13
2023-04-10T06:08:10.188Z,39.50
2023-04-10T06:11:13.678Z,38.08
2023-04-10T06:14:33.562Z,38.92
2023-04-10T06:17:50.210Z,26.98
2023-04-10T06:20:56.711Z,20.83
2023-04-10T06:23:59.950Z,19.10
2023-04-10T06:27:03.732Z,16.65
2023-04-10T06:30:08.841Z,19.40
2023-04-10T06:33:13.699Z,16.92
2023-04-10T06:36:20.089Z,20.02
2023-04-10T06:39:29.676Z,22.57
2023-04-10T06:42:32.980Z,19.13
2023-04-10T06:45:43.459Z,17.55
2023-04-10T06:48:48.091Z,21.30
2023-04-10T06:51:51.825Z,16.45
2023-04-10T06:54:55.942Z,17.40
2023-04-10T06:57:59.320Z,19.83
2023-04-10T07:01:04.851Z,19.23
2023-04-10T07:04:09.701Z,16.55
2023-04-10T07:07:16.621Z,16.42
2023-04-10T07:10:20.431Z,17.55
2023-04-10T07:13:26.623Z,25.73
2023-04-10T07:16:30.905Z,16.00
2023-04-10T07:19:38.339Z,24.52
2023-04-10T07:22:41.717Z,17.45
2023-04-10T07:25:44.992Z,16.88
2023-04-10T07:28:48.517Z,14.90
2023-04-10T07:31:52.249Z,15.45
2023-04-10T07:34:57.481Z,18.45
2023-04-10T07:38:01.158Z,15.93
2023-04-10T07:41:05.601Z,17.13
2023-04-10T07:44:08.945Z,14.55
2023-04-10T07:47:12.300Z,16.17
2023-04-10T07:50:17.491Z,14.60
2023-04-10T07:53:20.925Z,16.75
2023-04-10T07:56:24.374Z,13.43
2023-04-10T07:59:29.311Z,15.73
2023-04-10T08:02:32.880Z,16.60
2023-04-10T08:05:54.675Z,13.55
2023-04-10T08:08:58.014Z,19.45
2023-04-10T08:12:01.457Z,16.83
2023-04-10T08:15:05.854Z,22.15
2023-04-10T08:18:09.705Z,13.55
2023-04-10T08:21:14.636Z,19.27
2023-04-10T08:24:20.262Z,12.82
2023-04-10T08:27:23.573Z,14.95
2023-04-10T08:30:26.993Z,12.38
2023-04-10T08:33:31.559Z,16.20
2023-04-10T08:36:37.255Z,15.52
2023-04-10T08:39:40.834Z,18.02
2023-04-10T08:42:44.115Z,11.75
2023-04-10T08:45:48.688Z,11.68
2023-04-10T08:49:04.620Z,14.32
2023-04-10T08:52:14.525Z,15.05
2023-04-10T08:55:17.997Z,12.88
2023-04-10T08:58:21.973Z,13.18
2023-04-10T09:01:25.913Z,10.65
2023-04-10T09:04:29.938Z,13.30
2023-04-10T09:07:34.793Z,11.60
2023-04-10T09:10:39.482Z,11.57
2023-04-10T09:13:45.084Z,13.70
2023-04-10T09:16:48.386Z,14.32
2023-04-10T09:19:54.205Z,11.73
2023-04-10T09:22:59.382Z,12.88
2023-04-10T09:26:02.890Z,12.45
2023-04-10T09:29:11.047Z,14.95
2023-04-10T09:32:15.150Z,12.85
2023-04-10T09:35:18.746Z,10.75
2023-04-10T09:38:23.813Z,13.70
2023-04-10T09:41:27.142Z,10.30
2023-04-10T09:44:31.845Z,10.55
2023-04-10T09:47:35.201Z,12.55
2023-04-10T09:50:41.582Z,10.20
2023-04-10T09:53:51.361Z,9.93
2023-04-10T09:56:55.321Z,6.60
2023-04-10T10:00:02.572Z,10.68
2023-04-10T10:03:12.222Z,11.05
2023-04-10T10:06:16.261Z,9.63
2023-04-10T10:09:21.277Z,10.98
2023-04-10T10:12:30.952Z,11.95
2023-04-10T10:15:39.929Z,7.30
2023-04-10T10:18:48.498Z,11.05
2023-04-10T10:21:54.814Z,8.60
2023-04-10T10:25:01.862Z,9.73
2023-04-10T10:28:06.429Z,11.07
2023-04-10T10:31:11.065Z,10.68
2023-04-10T10:34:16.560Z,10.50
2023-04-10T10:37:21.563Z,10.35
2023-04-10T10:40:31.032Z,12.68
2023-04-10T10:43:45.201Z,10.82
2023-04-10T10:46:52.472Z,12.07
2023-04-10T10:49:57.700Z,9.07
2023-04-10T10:53:01.893Z,9.07
2023-04-10T10:56:37.804Z,14.45
2023-04-10T10:59:57.427Z,10.50
2023-04-10T11:03:30.914Z,13.18
2023-04-10T11:06:52.295Z,10.40
2023-04-10T11:09:57.320Z,11.32
2023-04-10T11:13:26.064Z,11.35
2023-04-10T11:16:44.273Z,8.82
2023-04-10T11:20:01.501Z,9.10
2023-04-10T11:23:13.480Z,10.43
2023-04-10T11:26:39.547Z,9.50
2023-04-10T11:29:42.904Z,6.88
2023-04-10T11:32:51.079Z,6.13
2023-04-10T11:35:55.091Z,9.52
2023-04-10T11:38:59.522Z,9.25
2023-04-10T11:42:05.786Z,12.52
2023-04-10T11:45:29.318Z,10.23
2023-04-10T11:48:32.945Z,10.30
2023-04-10T11:51:37.012Z,9.57
2023-04-10T11:54:49.777Z,10.75
2023-04-10T11:57:54.685Z,8.15
2023-04-10T12:01:02.444Z,12.13
2023-04-10T12:04:07.916Z,10.48
2023-04-10T12:07:12.136Z,9.90
2023-04-10T12:10:15.783Z,10.63
2023-04-10T12:13:27.817Z,8.20
2023-04-10T12:16:31.389Z,8.82
2023-04-10T12:19:35.526Z,10.48
2023-04-10T12:22:38.877Z,8.23
2023-04-10T12:25:43.441Z,10.85
2023-04-10T12:28:54.705Z,9.40
2023-04-10T12:31:58.588Z,10.82
2023-04-10T12:35:02.455Z,7.63
2023-04-10T12:38:06.014Z,8.90
2023-04-10T12:41:11.273Z,10.02
2023-04-10T12:44:16.425Z,7.38
2023-04-10T12:47:19.855Z,14.27
2023-04-10T12:50:23.662Z,7.97
2023-04-10T12:53:28.114Z,12.63
2023-04-10T12:56:42.841Z,8.80
2023-04-10T12:59:58.893Z,13.57
2023-04-10T13:03:08.705Z,10.65
2023-04-10T13:06:25.606Z,3.40
2023-04-10T13:09:34.720Z,6.75
2023-04-10T13:12:49.237Z,5.55
2023-04-10T13:15:55.748Z,7.75
2023-04-10T13:18:59.299Z,7.97
2023-04-10T13:22:02.597Z,6.40
2023-04-10T13:25:07.132Z,5.75
2023-04-10T13:28:11.390Z,6.78
2023-04-10T13:31:16.937Z,6.28
2023-04-10T13:34:21.194Z,6.75
2023-04-10T13:37:24.724Z,8.00
2023-04-10T13:40:28.490Z,7.20
2023-04-10T13:43:31.815Z,9.98
2023-04-10T13:46:39.059Z,14.57
2023-04-10T13:49:46.133Z,12.07
2023-04-10T13:52:50.160Z,7.88
2023-04-10T13:55:54.795Z,11.02
2023-04-10T13:58:58.882Z,8.32
2023-04-10T14:02:03.595Z,13.75
2023-04-10T14:05:08.018Z,11.98
2023-04-10T14:08:14.732Z,10.77
2023-04-10T14:11:18.296Z,23.55
2023-04-10T14:14:24.099Z,17.17
2023-04-10T14:17:29.228Z,21.58
2023-04-10T14:20:32.849Z,17.42
2023-04-10T14:23:36.251Z,15.68
2023-04-10T14:26:39.525Z,13.63
2023-04-10T14:29:53.960Z,11.35
2023-04-10T14:32:59.581Z,16.10
2023-04-10T14:36:03.436Z,16.48
2023-04-10T14:39:07.450Z,14.52
2023-04-10T14:42:11.073Z,13.15
2023-04-10T14:45:14.356Z,10.90
2023-04-10T14:48:20.002Z,12.98
2023-04-10T14:51:23.474Z,16.10
2023-04-10T14:54:27.993Z,14.48
2023-04-10T14:57:36.468Z,11.60
2023-04-10T15:00:40.087Z,14.10
2023-04-10T15:03:49.448Z,10.85
2023-04-10T15:06:52.940Z,12.27
2023-04-10T15:09:58.713Z,8.88
2023-04-10T15:13:02.050Z,11.18
2023-04-10T15:16:06.661Z,10.90
2023-04-10T15:19:12.407Z,9.45
2023-04-10T15:22:16.572Z,7.13
2023-04-10T15:25:19.891Z,8.43
2023-04-10T15:28:23.381Z,7.05
2023-04-10T15:31:26.720Z,10.45
2023-04-10T15:34:31.526Z,10.35
2023-04-10T15:37:37.563Z,10.48
2023-04-10T15:40:40.834Z,9.50
2023-04-10T15:43:54.909Z,12.95
2023-04-10T15:47:03.374Z,14.63
2023-04-10T15:50:10.894Z,12.73
2023-04-10T15:53:19.612Z,13.27
2023-04-10T15:56:25.023Z,10.68
2023-04-10T15:59:30.518Z,10.20
2023-04-10T16:02:34.579Z,12.40
2023-04-10T16:05:39.777Z,15.25
2023-04-10T16:08:45.431Z,13.52
2023-04-10T16:11:52.224Z,11.43
2023-04-10T16:14:57.016Z,14.68
2023-04-10T16:18:01.204Z,12.10
2023-04-10T16:21:09.361Z,11.65
2023-04-10T16:24:12.720Z,13.50
2023-04-10T16:27:16.074Z,13.35
2023-04-10T16:30:19.365Z,12.10
2023-04-10T16:33:22.636Z,20.23
2023-04-10T16:36:28.134Z,15.98
2023-04-10T16:39:31.494Z,15.07
2023-04-10T16:42:34.896Z,17.63
2023-04-10T16:45:38.135Z,16.23
2023-04-10T16:48:41.376Z,15.85
2023-04-10T16:51:46.127Z,17.23
2023-04-10T16:54:49.708Z,18.13
2023-04-10T16:57:53.096Z,16.00
2023-04-10T17:00:56.565Z,16.15
2023-04-10T17:04:00.121Z,18.05
2023-04-10T17:07:06.568Z,23.27
2023-04-10T17:10:10.819Z,17.35
2023-04-10T17:13:17.827Z,14.85
2023-04-10T17:16:22.647Z,12.75
2023-04-10T17:19:26.197Z,19.25
2023-04-10T17:22:31.037Z,14.43
2023-04-10T17:25:34.594Z,14.52
2023-04-10T17:28:37.866Z,14.63
2023-04-10T17:31:41.326Z,12.60
2023-04-10T17:34:44.690Z,15.38
2023-04-10T17:37:49.999Z,12.80
2023-04-10T17:40:53.464Z,15.57
2023-04-10T17:43:57.045Z,18.30
2023-04-10T17:47:01.480Z,24.50
2023-04-10T17:50:05.498Z,33.33
2023-04-10T17:53:10.537Z,53.30
2023-04-10T17:56:20.158Z,43.67
2023-04-10T17:59:23.398Z,32.47
2023-04-10T18:02:26.989Z,39.85
2023-04-10T18:05:30.631Z,56.88
2023-04-10T18:08:35.609Z,61.20
2023-04-10T18:11:40.098Z,63.03
2023-04-10T18:14:43.984Z,59.00
2023-04-10T18:17:47.293Z,42.00
2023-04-10T18:20:50.976Z,42.83
2023-04-10T18:23:56.518Z,40.35
2023-04-10T18:27:00.043Z,38.95
2023-04-10T18:30:03.626Z,37.47
2023-04-10T18:33:10.895Z,36.72
2023-04-10T18:36:18.860Z,39.75
2023-04-10T18:39:23.816Z,40.38
2023-04-10T18:42:28.606Z,40.97
2023-04-10T18:45:33.901Z,56.67
2023-04-10T18:48:42.804Z,54.13
2023-04-10T18:51:46.064Z,57.40
2023-04-10T18:54:51.109Z,74.57
2023-04-10T18:57:54.364Z,94.68
2023-04-10T19:00:57.574Z,88.45
2023-04-10T19:04:01.488Z,92.97
2023-04-10T19:07:05.598Z,83.95
2023-04-10T19:10:11.239Z,87.10
2023-04-10T19:13:16.332Z,86.80
2023-04-10T19:16:20.562Z,83.63
2023-04-10T19:19:24.169Z,76.85
2023-04-10T19:22:27.459Z,77.45
2023-04-10T19:25:32.704Z,79.10
2023-04-10T19:28:36.063Z,76.03
2023-04-10T19:31:39.512Z,108.47
2023-04-10T19:34:43.012Z,111.97
2023-04-10T19:37:46.396Z,117.57
2023-04-10T19:40:51.015Z,127.70
2023-04-10T19:43:56.215Z,149.88
2023-04-10T19:47:00.016Z,122.00
2023-04-10T19:50:03.545Z,145.02
2023-04-10T19:53:07.136Z,131.25
2023-04-10T19:56:11.802Z,127.90
2023-04-10T19:59:15.153Z,130.65
2023-04-10T20:02:18.863Z,136.05
2023-04-10T20:05:22.398Z,155.50
2023-04-10T20:08:25.767Z,150.40
2023-04-10T20:11:31.531Z,158.43
2023-04-10T20:14:35.132Z,177.55
2023-04-10T20:17:39.110Z,276.95
2023-04-10T20:20:42.660Z,176.88
2023-04-10T20:23:46.090Z,123.07
2023-04-10T20:26:50.919Z,119.05
2023-04-10T20:29:54.356Z,128.80
2023-04-10T20:32:57.808Z,118.03
2023-04-10T20:36:01.340Z,107.50
2023-04-10T20:39:04.763Z,109.95
2023-04-10T20:42:09.610Z,115.47
2023-04-10T20:45:13.646Z,100.05
2023-04-10T20:48:16.995Z,98.35
2023-04-10T20:51:20.175Z,99.32
2023-04-10T20:54:23.976Z,94.60
2023-04-10T20:57:28.642Z,91.05
2023-04-10T21:00:32.396Z,90.30
2023-04-10T21:03:35.766Z,88.75
2023-04-10T21:06:39.291Z,83.07
2023-04-10T21:09:42.539Z,86.30
2023-04-10T21:12:47.300Z,87.43
2023-04-10T21:15:50.662Z,87.32
2023-04-10T21:18:54.185Z,79.93
2023-04-10T21:21:58.643Z,76.25
2023-04-10T21:25:01.895Z,73.78
2023-04-10T21:28:06.555Z,73.07
2023-04-10T21:31:09.862Z,66.95
2023-04-10T21:34:13.846Z,70.68
2023-04-10T21:37:17.114Z,68.55
2023-04-10T21:40:20.415Z,71.95
2023-04-10T21:43:25.167Z,69.85
2023-04-10T21:46:28.866Z,64.25
2023-04-10T21:49:32.198Z,63.90
2023-04-10T21:52:35.483Z,66.60
2023-04-10T21:55:38.819Z,55.13
2023-04-10T21:58:43.549Z,61.83
2023-04-10T22:01:47.013Z,60.78
2023-04-10T22:04:54.327Z,59.58
2023-04-10T22:07:58.273Z,61.15
2023-04-10T22:11:01.713Z,57.33
2023-04-10T22:14:15.716Z,57.47
2023-04-10T22:17:20.571Z,56.08
2023-04-10T22:20:23.935Z,53.85
2023-04-10T22:23:27.428Z,53.45
2023-04-10T22:26:32.795Z,51.63
2023-04-10T22:29:37.725Z,51.90
2023-04-10T22:32:41.130Z,50.97
2023-04-10T22:35:44.484Z,50.92
2023-04-10T22:38:48.057Z,63.28
2023-04-10T22:41:51.410Z,77.78
2023-04-10T22:44:56.458Z,70.65
2023-04-10T22:47:59.912Z,80.47
2023-04-10T22:51:03.196Z,78.32
2023-04-10T22:54:06.584Z,71.95
2023-04-10T22:57:09.998Z,65.82
2023-04-10T23:00:15.626Z,67.10
2023-04-10T23:03:19.081Z,65.43
2023-04-10T23:06:22.418Z,70.20
2023-04-10T23:09:25.699Z,72.70
2023-04-10T23:12:28.900Z,73.15
2023-04-10T23:15:34.935Z,70.85
2023-04-10T23:18:38.303Z,69.35
2023-04-10T23:21:41.728Z,77.32
2023-04-10T23:24:45.835Z,80.18
2023-04-10T23:27:49.201Z,70.55
2023-04-10T23:30:53.841Z,75.82
2023-04-10T23:33:57.186Z,71.82
2023-04-10T23:37:00.401Z,69.03
2023-04-10T23:40:04.048Z,74.55
2023-04-10T23:43:07.364Z,73.05
2023-04-10T23:46:12.043Z,69.18
2023-04-10T23:49:15.291Z,61.75
2023-04-10T23:52:18.536Z,69.43
2023-04-10T23:55:22.472Z,70.32
2023-04-10T23:58:25.757Z,76.93
